createdAt,value
2022-11-12T00:02:18.996Z,10.60
2022-11-12T00:05:05.647Z,10.70
2022-11-12T00:07:51.714Z,10.80
2022-11-12T00:10:37.662Z,10.80
2022-11-12T00:13:23.735Z,10.90
2022-11-12T00:16:10.048Z,10.60
2022-11-12T00:18:56.035Z,10.00
2022-11-12T00:21:42.248Z,9.70
2022-11-12T00:24:28.379Z,9.80
2022-11-12T00:27:14.273Z,10.00
2022-11-12T00:30:00.172Z,10.20
2022-11-12T00:32:45.818Z,10.40
2022-11-12T00:35:32.864Z,10.40
2022-11-12T00:38:18.555Z,10.40
2022-11-12T00:41:04.449Z,10.40
2022-11-12T00:43:50.387Z,10.60
2022-11-12T00:46:36.084Z,10.70
2022-11-12T00:49:22.070Z,10.80
2022-11-12T00:52:08.113Z,10.50
2022-11-12T00:54:53.744Z,10.40
2022-11-12T00:57:39.525Z,10.50
2022-11-12T01:00:30.523Z,10.50
2022-11-12T01:03:16.029Z,10.10
2022-11-12T01:06:04.043Z,10.00
2022-11-12T01:08:50.735Z,10.20
2022-11-12T01:11:37.233Z,10.30
2022-11-12T01:14:22.877Z,10.40
2022-11-12T01:17:08.928Z,10.30
2022-11-12T01:19:54.878Z,10.30
2022-11-12T01:22:40.586Z,10.40
2022-11-12T01:25:26.373Z,10.50
2022-11-12T01:28:12.437Z,10.30
2022-11-12T01:30:58.758Z,10.30
2022-11-12T01:33:46.606Z,10.40
2022-11-12T01:36:36.189Z,10.50
2022-11-12T01:39:22.246Z,10.50
2022-11-12T01:42:08.301Z,10.40
2022-11-12T01:44:54.060Z,10.20
2022-11-12T01:47:39.960Z,10.20
2022-11-12T01:50:32.201Z,10.00
2022-11-12T01:53:19.588Z,10.00
2022-11-12T01:56:06.973Z,10.00
2022-11-12T01:59:00.905Z,10.10
2022-11-12T02:01:47.096Z,10.20
2022-11-12T02:04:34.963Z,10.20
2022-11-12T02:07:22.754Z,10.00
2022-11-12T02:10:10.013Z,10.00
2022-11-12T02:13:15.169Z,10.00
2022-11-12T02:16:01.233Z,10.00
2022-11-12T02:18:46.971Z,10.00
2022-11-12T02:21:33.309Z,10.00
2022-11-12T02:24:19.265Z,10.00
2022-11-12T02:27:06.404Z,10.00
2022-11-12T02:29:52.170Z,10.10
2022-11-12T02:32:37.993Z,10.20
2022-11-12T02:35:23.697Z,10.10
2022-11-12T02:38:10.302Z,10.10
2022-11-12T02:40:56.313Z,10.20
2022-11-12T02:43:42.078Z,10.30
2022-11-12T02:46:28.632Z,10.30
2022-11-12T02:49:14.597Z,9.80
2022-11-12T02:52:00.742Z,9.40
2022-11-12T02:54:46.748Z,9.50
2022-11-12T02:57:32.884Z,9.40
2022-11-12T03:00:18.943Z,9.40
2022-11-12T03:03:04.739Z,9.50
2022-11-12T03:06:01.148Z,9.70
2022-11-12T03:08:47.081Z,9.70
2022-11-12T03:11:32.940Z,9.70
2022-11-12T03:14:19.046Z,9.70
2022-11-12T03:17:04.971Z,9.80
2022-11-12T03:19:50.672Z,9.70
2022-11-12T03:23:34.779Z,9.40
2022-11-12T03:26:20.648Z,9.40
2022-11-12T03:34:20.616Z,9.50
2022-11-12T03:37:12.791Z,9.00
2022-11-12T03:39:58.936Z,9.20
2022-11-12T03:42:46.916Z,9.40
2022-11-12T03:45:35.781Z,9.50
2022-11-12T03:48:21.990Z,9.50
2022-11-12T03:51:07.694Z,9.60
2022-11-12T03:54:56.023Z,9.70
2022-11-12T03:57:42.335Z,9.70
2022-11-12T04:00:31.679Z,9.30
2022-11-12T04:03:17.569Z,9.20
2022-11-12T04:06:21.966Z,9.40
2022-11-12T04:09:07.901Z,9.50
2022-11-12T04:11:53.584Z,9.60
2022-11-12T04:14:39.204Z,9.50
2022-11-12T04:17:43.718Z,9.40
2022-11-12T04:20:48.254Z,9.40
2022-11-12T04:23:34.708Z,9.60
2022-11-12T04:26:23.715Z,9.70
2022-11-12T04:29:28.321Z,9.50
2022-11-12T04:32:14.612Z,9.40
2022-11-12T04:35:01.043Z,9.50
2022-11-12T04:37:47.729Z,9.70
2022-11-12T04:40:52.580Z,9.80
2022-11-12T04:43:56.862Z,9.60
2022-11-12T04:46:42.825Z,9.50
2022-11-12T04:49:28.710Z,9.50
2022-11-12T04:52:15.091Z,9.60
2022-11-12T04:55:01.099Z,9.50
2022-11-12T04:57:47.163Z,9.20
2022-11-12T05:00:35.300Z,8.80
2022-11-12T05:03:22.318Z,8.90
2022-11-12T05:06:28.190Z,8.90
2022-11-12T05:09:14.098Z,8.80
2022-11-12T05:11:59.962Z,8.80
2022-11-12T05:14:45.613Z,8.90
2022-11-12T05:17:31.690Z,9.00
2022-11-12T05:20:18.116Z,9.20
2022-11-12T05:23:07.734Z,8.70
2022-11-12T05:25:53.983Z,8.80
2022-11-12T05:28:40.030Z,9.00
2022-11-12T05:31:25.881Z,9.10
2022-11-12T05:34:11.904Z,8.60
2022-11-12T05:36:58.261Z,8.60
2022-11-12T05:39:45.760Z,8.70
2022-11-12T05:42:31.726Z,8.90
2022-11-12T05:45:17.355Z,9.00
2022-11-12T05:48:03.009Z,9.20
2022-11-12T05:51:11.884Z,9.20
2022-11-12T05:53:58.891Z,9.20
2022-11-12T05:56:45.496Z,9.10
2022-11-12T05:59:31.555Z,9.20
2022-11-12T06:02:17.307Z,9.20
2022-11-12T06:05:03.706Z,9.40
2022-11-12T06:07:50.222Z,9.50
2022-11-12T06:10:36.292Z,9.40
2022-11-12T06:13:23.954Z,9.40
2022-11-12T06:16:10.178Z,9.50
2022-11-12T06:18:56.543Z,9.40
2022-11-12T06:21:42.275Z,9.40
2022-11-12T06:24:34.978Z,9.20
2022-11-12T06:27:21.572Z,9.00
2022-11-12T06:30:08.999Z,8.90
2022-11-12T06:32:55.035Z,8.90
2022-11-12T06:35:43.071Z,8.60
2022-11-12T06:38:37.157Z,8.60
2022-11-12T06:41:23.347Z,8.80
2022-11-12T06:44:09.436Z,8.80
2022-11-12T06:46:55.318Z,8.90
2022-11-12T06:49:41.160Z,8.90
2022-11-12T06:52:27.054Z,9.00
2022-11-12T06:55:13.118Z,9.20
2022-11-12T06:57:58.959Z,9.40
2022-11-12T07:00:45.482Z,9.50
2022-11-12T07:03:31.080Z,9.50
2022-11-12T07:06:20.809Z,9.60
2022-11-12T07:09:07.096Z,9.70
2022-11-12T07:11:54.100Z,10.00
2022-11-12T07:14:40.251Z,10.10
2022-11-12T07:17:26.166Z,10.30
2022-11-12T07:20:12.904Z,10.40
2022-11-12T07:23:01.736Z,10.50
2022-11-12T07:25:47.653Z,10.40
2022-11-12T07:28:34.285Z,10.40
2022-11-12T07:31:20.726Z,10.30
2022-11-12T07:34:06.391Z,10.30
2022-11-12T07:36:52.208Z,10.40
2022-11-12T07:39:38.058Z,10.40
2022-11-12T07:42:24.010Z,10.40
2022-11-12T07:45:10.509Z,10.20
2022-11-12T07:47:59.593Z,10.10
2022-11-12T07:50:45.084Z,10.30
2022-11-12T07:53:31.077Z,10.60
2022-11-12T07:56:19.320Z,10.70
2022-11-12T07:59:06.094Z,10.90
2022-11-12T08:01:52.202Z,11.00
2022-11-12T08:04:38.225Z,11.10
2022-11-12T08:07:24.644Z,11.20
2022-11-12T08:10:11.278Z,11.30
2022-11-12T08:12:57.778Z,11.40
2022-11-12T08:15:49.553Z,11.40
2022-11-12T08:18:37.873Z,11.50
2022-11-12T08:21:24.091Z,11.60
2022-11-12T08:24:09.862Z,11.70
2022-11-12T08:26:55.390Z,11.70
2022-11-12T08:29:41.176Z,11.90
2022-11-12T08:32:26.793Z,11.60
2022-11-12T08:35:12.651Z,11.40
2022-11-12T08:38:03.338Z,11.50
2022-11-12T08:40:49.298Z,11.70
2022-11-12T08:43:35.482Z,11.90
2022-11-12T08:46:21.796Z,12.10
2022-11-12T08:49:07.331Z,12.20
2022-11-12T08:51:53.330Z,12.30
2022-11-12T08:54:38.908Z,12.20
2022-11-12T08:57:25.043Z,12.10
2022-11-12T09:00:13.142Z,12.10
2022-11-12T09:03:02.679Z,12.20
2022-11-12T09:05:49.835Z,12.30
2022-11-12T09:08:37.153Z,12.30
2022-11-12T09:11:23.529Z,12.20
2022-11-12T09:14:09.523Z,11.90
2022-11-12T09:16:55.349Z,12.00
2022-11-12T09:19:44.144Z,11.90
2022-11-12T09:22:32.364Z,11.70
2022-11-12T09:25:18.493Z,11.60
2022-11-12T09:28:15.608Z,11.70
2022-11-12T09:31:02.713Z,11.90
2022-11-12T09:33:48.841Z,11.90
2022-11-12T09:36:39.523Z,11.90
2022-11-12T09:39:25.818Z,12.10
2022-11-12T09:42:16.563Z,12.30
2022-11-12T09:45:14.125Z,12.50
2022-11-12T09:48:06.058Z,12.70
2022-11-12T09:51:04.280Z,12.90
2022-11-12T09:53:59.090Z,12.90
2022-11-12T09:56:44.744Z,12.90
2022-11-12T09:59:33.138Z,13.00
2022-11-12T10:02:44.258Z,13.10
2022-11-12T10:05:48.608Z,13.10
2022-11-12T10:08:45.147Z,13.20
2022-11-12T10:12:04.620Z,13.10
2022-11-12T10:15:51.441Z,13.00
2022-11-12T10:19:15.374Z,12.90
2022-11-12T10:22:32.106Z,12.90
2022-11-12T10:25:20.157Z,12.90
2022-11-12T10:28:19.168Z,13.00
2022-11-12T10:31:16.040Z,13.00
2022-11-12T10:34:13.789Z,13.10
2022-11-12T10:37:05.008Z,13.10
2022-11-12T10:39:51.146Z,13.00
2022-11-12T10:43:06.307Z,12.90
2022-11-12T10:46:12.846Z,12.90
2022-11-12T10:49:02.812Z,12.90
2022-11-12T10:51:59.466Z,13.10
2022-11-12T10:54:46.852Z,13.10
2022-11-12T10:57:36.015Z,13.20
2022-11-12T11:00:22.748Z,13.30
2022-11-12T11:03:31.311Z,13.30
2022-11-12T11:06:17.248Z,13.30
2022-11-12T11:09:16.558Z,13.30
2022-11-12T11:12:02.845Z,13.30
2022-11-12T11:15:19.595Z,13.30
2022-11-12T11:18:05.644Z,13.30
2022-11-12T11:21:06.512Z,13.30
2022-11-12T11:24:04.084Z,13.30
2022-11-12T11:27:04.750Z,13.30
2022-11-12T11:30:07.271Z,13.30
2022-11-12T11:33:20.698Z,13.30
2022-11-12T11:36:29.436Z,13.30
2022-11-12T11:39:21.255Z,13.30
2022-11-12T11:42:34.415Z,13.20
2022-11-12T11:45:52.693Z,13.10
2022-11-12T11:49:17.152Z,13.10
2022-11-12T11:52:32.781Z,13.10
2022-11-12T11:55:33.388Z,13.10
2022-11-12T11:58:22.414Z,13.10
2022-11-12T12:01:23.856Z,13.10
2022-11-12T12:04:28.636Z,13.10
2022-11-12T12:07:38.249Z,13.10
2022-11-12T12:14:15.476Z,13.10
2022-11-12T12:17:13.995Z,13.00
2022-11-12T12:20:34.010Z,13.00
2022-11-12T12:23:50.749Z,13.00
2022-11-12T12:26:42.531Z,13.00
2022-11-12T12:29:50.124Z,12.90
2022-11-12T12:32:47.088Z,12.90
2022-11-12T12:35:59.420Z,12.80
2022-11-12T12:38:53.911Z,12.70
2022-11-12T12:42:05.528Z,12.60
2022-11-12T12:45:04.345Z,12.60
2022-11-12T12:47:52.641Z,12.70
2022-11-12T12:50:40.818Z,12.70
2022-11-12T12:53:36.627Z,12.80
2022-11-12T12:56:31.953Z,12.80
2022-11-12T12:59:22.869Z,12.90
2022-11-12T13:02:25.671Z,12.90
2022-11-12T13:05:43.763Z,13.00
2022-11-12T13:08:37.182Z,13.10
2022-11-12T13:12:16.410Z,13.10
2022-11-12T13:15:10.447Z,13.10
2022-11-12T13:17:56.490Z,13.00
2022-11-12T13:20:42.925Z,13.10
2022-11-12T13:24:08.532Z,13.10
2022-11-12T13:27:00.701Z,12.90
2022-11-12T13:29:48.225Z,12.80
2022-11-12T13:32:48.563Z,12.90
2022-11-12T13:35:37.683Z,13.00
2022-11-12T13:38:23.981Z,13.00
2022-11-12T13:41:12.756Z,12.90
2022-11-12T13:43:58.907Z,13.00
2022-11-12T13:46:45.465Z,12.90
2022-11-12T13:49:32.124Z,12.80
2022-11-12T13:52:19.877Z,12.70
2022-11-12T13:55:14.638Z,12.80
2022-11-12T13:58:00.574Z,12.80
2022-11-12T14:00:58.846Z,12.80
2022-11-12T14:03:52.621Z,12.80
2022-11-12T14:06:42.407Z,12.80
2022-11-12T14:09:46.719Z,12.80
2022-11-12T14:12:51.032Z,12.80
2022-11-12T14:16:04.463Z,12.80
2022-11-12T14:19:17.570Z,12.80
2022-11-12T14:22:09.361Z,12.90
2022-11-12T14:25:02.230Z,12.80
2022-11-12T14:27:50.359Z,12.50
2022-11-12T14:30:47.066Z,12.50
2022-11-12T14:33:33.824Z,12.70
2022-11-12T14:36:20.750Z,12.70
2022-11-12T14:39:07.485Z,12.70
2022-11-12T14:41:55.183Z,12.80
2022-11-12T14:44:41.081Z,12.70
2022-11-12T14:47:27.672Z,12.50
2022-11-12T14:50:19.495Z,12.50
2022-11-12T14:53:27.728Z,12.30
2022-11-12T14:56:35.873Z,12.30
2022-11-12T14:59:22.155Z,12.30
2022-11-12T15:05:23.749Z,12.20
2022-11-12T15:08:12.507Z,12.30
2022-11-12T15:11:21.660Z,12.30
2022-11-12T15:14:22.316Z,12.30
2022-11-12T15:17:32.406Z,12.40
2022-11-12T15:20:19.673Z,12.50
2022-11-12T15:23:05.712Z,12.50
2022-11-12T15:26:02.294Z,12.50
2022-11-12T15:29:28.679Z,12.00
2022-11-12T15:32:14.306Z,11.90
2022-11-12T15:35:02.341Z,12.00
2022-11-12T15:37:48.141Z,12.00
2022-11-12T15:40:45.784Z,12.10
2022-11-12T15:43:37.046Z,12.20
2022-11-12T15:46:23.177Z,12.10
2022-11-12T15:49:13.239Z,11.90
2022-11-12T15:51:58.905Z,11.90
2022-11-12T15:54:44.876Z,11.90
2022-11-12T15:57:34.329Z,12.00
2022-11-12T16:00:25.544Z,11.90
2022-11-12T16:03:19.805Z,11.70
2022-11-12T16:06:09.201Z,11.70
2022-11-12T16:08:55.027Z,11.70
2022-11-12T16:11:40.942Z,11.50
2022-11-12T16:14:28.019Z,11.50
2022-11-12T16:17:17.654Z,11.50
2022-11-12T16:20:13.563Z,11.70
2022-11-12T16:23:00.045Z,11.50
2022-11-12T16:25:46.148Z,11.50
2022-11-12T16:28:32.606Z,11.50
2022-11-12T16:31:20.264Z,11.40
2022-11-12T16:34:06.203Z,11.30
2022-11-12T16:36:51.895Z,11.20
2022-11-12T16:39:37.581Z,11.10
2022-11-12T16:42:23.347Z,11.20
2022-11-12T16:45:09.535Z,11.20
2022-11-12T16:47:56.280Z,11.00
2022-11-12T16:50:42.287Z,10.90
2022-11-12T16:53:28.331Z,10.80
2022-11-12T16:56:20.141Z,10.70
2022-11-12T16:59:06.157Z,10.70
2022-11-12T17:01:51.921Z,10.40
2022-11-12T17:04:37.651Z,10.40
2022-11-12T17:07:24.332Z,10.40
2022-11-12T17:10:10.578Z,10.50
2022-11-12T17:12:56.146Z,10.30
2022-11-12T17:15:45.112Z,10.20
2022-11-12T17:18:31.432Z,10.20
2022-11-12T17:21:19.186Z,10.30
2022-11-12T17:24:05.504Z,10.40
2022-11-12T17:26:51.556Z,10.50
2022-11-12T17:29:37.646Z,10.00
2022-11-12T17:32:24.715Z,9.90
2022-11-12T17:35:10.815Z,9.90
2022-11-12T17:37:56.383Z,9.50
2022-11-12T17:40:42.197Z,9.80
2022-11-12T17:43:28.173Z,10.00
2022-11-12T17:46:15.182Z,10.20
2022-11-12T17:49:01.330Z,10.20
2022-11-12T17:51:47.241Z,10.10
2022-11-12T17:54:33.538Z,10.00
2022-11-12T17:57:19.306Z,9.80
2022-11-12T18:00:05.670Z,9.80
2022-11-12T18:02:52.161Z,9.80
2022-11-12T18:05:38.247Z,10.00
2022-11-12T18:08:24.242Z,10.20
2022-11-12T18:11:11.670Z,10.20
2022-11-12T18:13:57.615Z,10.00
2022-11-12T18:16:44.507Z,10.00
2022-11-12T18:19:31.292Z,9.90
2022-11-12T18:22:16.919Z,10.00
2022-11-12T18:25:03.019Z,10.00
2022-11-12T18:27:49.902Z,10.00
2022-11-12T18:30:41.179Z,9.80
2022-11-12T18:33:27.514Z,9.90
2022-11-12T18:36:18.453Z,10.00
2022-11-12T18:39:05.417Z,10.00
2022-11-12T18:41:51.500Z,9.90
2022-11-12T18:44:37.372Z,9.70
2022-11-12T18:47:23.373Z,9.70
2022-11-12T18:50:09.383Z,9.80
2022-11-12T18:52:55.811Z,9.80
2022-11-12T18:55:41.800Z,9.80
2022-11-12T18:58:34.726Z,9.90
2022-11-12T19:01:23.575Z,9.90
2022-11-12T19:04:10.889Z,9.90
2022-11-12T19:06:57.194Z,9.70
2022-11-12T19:09:42.958Z,9.70
2022-11-12T19:12:29.067Z,9.70
2022-11-12T19:15:15.136Z,9.60
2022-11-12T19:18:01.679Z,9.50
2022-11-12T19:20:48.761Z,9.50
2022-11-12T19:23:35.155Z,9.40
2022-11-12T19:26:22.466Z,9.30
2022-11-12T19:29:08.435Z,9.10
2022-11-12T19:31:54.158Z,9.20
2022-11-12T19:34:39.941Z,9.10
2022-11-12T19:37:34.164Z,9.00
2022-11-12T19:40:20.510Z,9.00
2022-11-12T19:43:06.313Z,9.00
2022-11-12T19:45:53.465Z,9.10
2022-11-12T19:48:39.226Z,9.30
2022-11-12T19:51:25.184Z,9.40
2022-11-12T19:54:11.296Z,9.30
2022-11-12T19:56:57.245Z,9.10
2022-11-12T19:59:43.108Z,9.10
2022-11-12T20:02:29.188Z,8.70
2022-11-12T20:05:15.166Z,8.70
2022-11-12T20:08:01.089Z,8.40
2022-11-12T20:10:47.471Z,8.40
2022-11-12T20:13:33.899Z,8.60
2022-11-12T20:16:24.969Z,8.60
2022-11-12T20:19:11.406Z,8.70
2022-11-12T20:21:57.180Z,8.60
2022-11-12T20:24:42.980Z,8.50
2022-11-12T20:27:28.728Z,8.80
2022-11-12T20:30:14.719Z,9.00
2022-11-12T20:33:00.803Z,9.00
2022-11-12T20:35:46.722Z,9.00
2022-11-12T20:38:35.639Z,8.70
2022-11-12T20:41:23.542Z,8.60
2022-11-12T20:44:09.560Z,8.60
2022-11-12T20:46:55.293Z,8.60
2022-11-12T20:49:40.951Z,8.90
2022-11-12T20:52:26.798Z,9.20
2022-11-12T20:55:12.675Z,9.60
2022-11-12T20:57:58.928Z,10.00
2022-11-12T21:00:47.001Z,10.30
2022-11-12T21:03:34.925Z,10.50
2022-11-12T21:06:23.885Z,10.60
2022-11-12T21:09:09.781Z,11.00
2022-11-12T21:11:55.676Z,11.10
2022-11-12T21:14:44.800Z,11.10
2022-11-12T21:17:33.544Z,11.00
2022-11-12T21:20:19.251Z,11.30
2022-11-12T21:23:05.372Z,11.50
2022-11-12T21:25:51.155Z,11.60
2022-11-12T21:28:38.476Z,11.40
2022-11-12T21:31:28.691Z,11.30
2022-11-12T21:34:14.629Z,11.40
2022-11-12T21:37:01.222Z,11.50
2022-11-12T21:39:49.401Z,11.30
2022-11-12T21:42:35.125Z,11.40
2022-11-12T21:45:20.830Z,11.20
2022-11-12T21:48:06.508Z,11.40
2022-11-12T21:50:52.313Z,11.40
2022-11-12T21:53:38.586Z,11.50
2022-11-12T21:56:25.725Z,11.70
2022-11-12T21:59:11.700Z,11.70
2022-11-12T22:01:57.545Z,11.70
2022-11-12T22:04:43.296Z,12.00
2022-11-12T22:07:29.141Z,11.90
2022-11-12T22:10:14.957Z,12.00
2022-11-12T22:16:18.101Z,12.10
2022-11-12T22:19:04.492Z,12.00
2022-11-12T22:21:50.086Z,11.90
2022-11-12T22:24:36.510Z,12.00
2022-11-12T22:27:22.381Z,12.20
2022-11-12T22:30:08.795Z,12.10
2022-11-12T22:32:54.459Z,12.20
2022-11-12T22:35:40.542Z,12.20
2022-11-12T22:38:26.731Z,12.10
2022-11-12T22:41:18.620Z,12.00
2022-11-12T22:44:04.838Z,12.10
2022-11-12T22:46:50.623Z,12.20
2022-11-12T22:49:36.265Z,12.00
2022-11-12T22:52:22.066Z,11.90
2022-11-12T22:55:07.992Z,12.00
2022-11-12T22:57:54.597Z,11.90
2022-11-12T23:00:41.756Z,11.50
2022-11-12T23:03:30.171Z,11.10
2022-11-12T23:06:16.902Z,10.80
2022-11-12T23:09:03.934Z,10.80
2022-11-12T23:11:49.581Z,10.70
2022-11-12T23:14:36.516Z,10.50
2022-11-12T23:17:22.756Z,10.30
2022-11-12T23:20:09.647Z,10.60
2022-11-12T23:22:55.587Z,10.60
2022-11-12T23:25:41.477Z,10.50
2022-11-12T23:28:27.459Z,10.50
2022-11-12T23:31:22.262Z,10.60
2022-11-12T23:34:09.837Z,10.60
2022-11-12T23:36:55.537Z,10.60
2022-11-12T23:39:41.422Z,10.60
2022-11-12T23:42:28.963Z,10.60
2022-11-12T23:45:15.046Z,10.70
2022-11-12T23:48:00.589Z,10.70
2022-11-12T23:50:55.201Z,10.90
2022-11-12T23:53:47.577Z,11.10
2022-11-12T23:56:34.154Z,11.10
2022-11-12T23:59:19.861Z,11.10
